createdAt,value
2023-03-11T00:00:00.469Z,1.60
2023-03-11T00:02:30.886Z,1.50
2023-03-11T00:05:01.458Z,1.70
2023-03-11T00:07:31.983Z,1.60
2023-03-11T00:10:03.226Z,1.60
2023-03-11T00:12:33.846Z,1.60
2023-03-11T00:15:04.775Z,1.60
2023-03-11T00:17:35.222Z,1.30
2023-03-11T00:20:06.983Z,1.30
2023-03-11T00:22:37.443Z,1.20
2023-03-11T00:25:08.816Z,1.30
2023-03-11T00:27:39.694Z,1.40
2023-03-11T00:30:12.911Z,1.40
2023-03-11T00:32:43.478Z,1.40
2023-03-11T00:35:16.910Z,1.40
2023-03-11T00:37:49.549Z,1.60
2023-03-11T00:40:21.886Z,1.40
2023-03-11T00:42:53.009Z,1.20
2023-03-11T00:45:23.959Z,1.30
2023-03-11T00:47:55.447Z,1.10
2023-03-11T00:50:28.817Z,1.10
2023-03-11T00:53:00.979Z,1.00
2023-03-11T00:55:33.438Z,1.10
2023-03-11T00:58:08.375Z,1.20
2023-03-11T01:00:45.052Z,1.00
2023-03-11T01:03:15.782Z,1.00
2023-03-11T01:05:48.449Z,0.90
2023-03-11T01:08:18.976Z,1.00
2023-03-11T01:10:49.514Z,1.00
2023-03-11T01:13:20.258Z,0.80
2023-03-11T01:15:50.899Z,1.10
2023-03-11T01:18:21.927Z,0.80
2023-03-11T01:20:52.449Z,1.10
2023-03-11T01:23:23.907Z,0.90
2023-03-11T01:25:54.357Z,0.80
2023-03-11T01:28:24.794Z,1.10
2023-03-11T01:30:55.250Z,0.90
2023-03-11T01:33:25.720Z,0.80
2023-03-11T01:35:56.565Z,0.80
2023-03-11T01:38:30.380Z,0.90
2023-03-11T01:41:00.822Z,0.80
2023-03-11T01:43:48.867Z,0.80
2023-03-11T01:46:24.230Z,0.70
2023-03-11T01:48:56.747Z,0.80
2023-03-11T01:51:33.214Z,1.00
2023-03-11T01:54:08.096Z,0.80
2023-03-11T01:56:40.430Z,1.00
2023-03-11T01:59:13.459Z,0.90
2023-03-11T02:01:51.028Z,0.90
2023-03-11T02:04:22.723Z,1.00
2023-03-11T02:06:54.236Z,0.70
2023-03-11T02:09:27.121Z,0.70
2023-03-11T02:12:50.695Z,0.80
2023-03-11T02:16:16.500Z,0.70
2023-03-11T02:18:47.596Z,0.80
2023-03-11T02:21:26.469Z,0.70
2023-03-11T02:24:06.798Z,0.90
2023-03-11T02:26:42.604Z,0.60
2023-03-11T02:29:14.246Z,0.80
2023-03-11T02:31:46.986Z,1.00
2023-03-11T02:34:24.525Z,0.70
2023-03-11T02:36:55.346Z,0.70
2023-03-11T02:39:34.060Z,0.70
2023-03-11T02:42:08.271Z,0.70
2023-03-11T02:44:40.705Z,0.80
2023-03-11T02:47:11.526Z,0.80
2023-03-11T02:49:42.596Z,0.70
2023-03-11T02:54:43.689Z,0.60
2023-03-11T02:57:14.171Z,0.70
2023-03-11T02:59:44.817Z,0.70
2023-03-11T03:04:46.357Z,0.70
2023-03-11T03:07:17.370Z,0.40
2023-03-11T03:09:47.862Z,0.60
2023-03-11T03:12:18.313Z,0.60
2023-03-11T03:14:48.942Z,0.60
2023-03-11T03:17:20.423Z,0.70
2023-03-11T03:19:51.330Z,0.50
2023-03-11T03:22:22.199Z,0.50
2023-03-11T03:24:53.114Z,0.50
2023-03-11T03:27:23.942Z,0.50
2023-03-11T03:29:55.063Z,0.50
2023-03-11T03:32:25.880Z,0.80
2023-03-11T03:34:59.136Z,0.60
2023-03-11T03:37:38.885Z,0.60
2023-03-11T03:40:12.361Z,0.40
2023-03-11T03:42:43.303Z,0.70
2023-03-11T03:45:15.122Z,0.30
2023-03-11T03:47:45.812Z,0.40
2023-03-11T03:50:16.713Z,0.40
2023-03-11T03:52:48.911Z,0.40
2023-03-11T03:55:20.215Z,0.40
2023-03-11T03:57:51.303Z,0.20
2023-03-11T04:00:23.931Z,0.20
2023-03-11T04:02:57.898Z,0.40
2023-03-11T04:05:34.539Z,0.30
2023-03-11T04:08:30.728Z,0.40
2023-03-11T04:11:01.507Z,0.30
2023-03-11T04:13:33.648Z,0.20
2023-03-11T04:16:05.885Z,0.30
2023-03-11T04:21:09.525Z,0.40
2023-03-11T04:23:40.652Z,0.30
2023-03-11T04:26:11.535Z,0.30
2023-03-11T04:28:42.530Z,0.30
2023-03-11T04:31:13.369Z,0.40
2023-03-11T04:33:44.644Z,0.20
2023-03-11T04:36:15.638Z,0.20
2023-03-11T04:38:46.877Z,0.40
2023-03-11T04:41:17.619Z,0.40
2023-03-11T04:43:48.536Z,0.40
2023-03-11T04:46:19.372Z,0.30
2023-03-11T04:48:50.040Z,0.40
2023-03-11T04:51:21.387Z,0.50
2023-03-11T04:53:52.022Z,0.50
2023-03-11T04:56:23.008Z,0.40
2023-03-11T04:58:53.955Z,0.40
2023-03-11T05:01:25.069Z,0.40
2023-03-11T05:03:55.768Z,0.40
2023-03-11T05:06:26.308Z,0.50
2023-03-11T05:08:57.277Z,0.50
2023-03-11T05:11:28.261Z,0.50
2023-03-11T05:13:58.856Z,0.50
2023-03-11T05:16:30.109Z,0.60
2023-03-11T05:19:00.861Z,0.60
2023-03-11T05:21:31.272Z,0.70
2023-03-11T05:24:01.823Z,0.60
2023-03-11T05:26:32.233Z,0.40
2023-03-11T05:29:03.226Z,0.50
2023-03-11T05:31:33.860Z,0.40
2023-03-11T05:34:05.050Z,0.60
2023-03-11T05:36:35.588Z,0.70
2023-03-11T05:39:06.777Z,0.60
2023-03-11T05:41:37.829Z,0.70
2023-03-11T05:44:14.788Z,0.90
2023-03-11T05:46:45.812Z,0.70
2023-03-11T05:49:16.379Z,0.60
2023-03-11T05:51:46.804Z,0.80
2023-03-11T05:54:17.749Z,0.70
2023-03-11T05:56:50.566Z,0.80
2023-03-11T05:59:21.533Z,0.70
2023-03-11T06:01:57.138Z,0.70
2023-03-11T06:04:27.819Z,1.10
2023-03-11T06:06:58.539Z,0.90
2023-03-11T06:09:31.424Z,1.30
2023-03-11T06:12:02.414Z,1.10
2023-03-11T06:14:38.777Z,1.00
2023-03-11T06:17:09.616Z,1.30
2023-03-11T06:19:40.140Z,1.10
2023-03-11T06:22:12.329Z,1.20
2023-03-11T06:24:42.944Z,1.60
2023-03-11T06:27:13.803Z,1.30
2023-03-11T06:29:44.659Z,1.30
2023-03-11T06:32:15.548Z,1.20
2023-03-11T06:34:46.107Z,1.10
2023-03-11T06:37:16.586Z,1.40
2023-03-11T06:39:47.043Z,1.10
2023-03-11T06:42:20.276Z,1.30
2023-03-11T06:44:51.497Z,1.50
2023-03-11T06:47:22.123Z,1.30
2023-03-11T06:49:54.845Z,1.50
2023-03-11T06:54:54.361Z,1.20
2023-03-11T06:57:24.882Z,1.40
2023-03-11T06:59:56.049Z,1.40
2023-03-11T07:02:26.718Z,1.40
2023-03-11T07:04:57.398Z,1.20
2023-03-11T07:07:27.812Z,1.40
2023-03-11T07:09:59.235Z,1.50
2023-03-11T07:12:29.974Z,1.30
2023-03-11T07:15:01.436Z,1.60
2023-03-11T07:17:33.474Z,1.60
2023-03-11T07:20:04.384Z,1.40
2023-03-11T07:22:34.833Z,1.90
2023-03-11T07:25:06.001Z,1.30
2023-03-11T07:27:36.427Z,1.50
2023-03-11T07:30:08.482Z,1.40
2023-03-11T07:32:39.038Z,1.50
2023-03-11T07:35:11.900Z,1.60
2023-03-11T07:37:42.276Z,2.00
2023-03-11T07:40:15.027Z,1.70
2023-03-11T07:42:45.456Z,1.50
2023-03-11T07:45:16.377Z,1.40
2023-03-11T07:47:46.940Z,1.80
2023-03-11T07:50:18.258Z,1.80
2023-03-11T07:52:48.884Z,1.80
2023-03-11T07:55:19.953Z,1.70
2023-03-11T07:57:51.778Z,1.40
2023-03-11T08:00:23.675Z,1.50
2023-03-11T08:02:54.515Z,1.90
2023-03-11T08:05:25.184Z,1.70
2023-03-11T08:07:55.653Z,1.70
2023-03-11T08:10:26.188Z,1.70
2023-03-11T08:12:56.608Z,1.90
2023-03-11T08:15:27.144Z,1.50
2023-03-11T08:17:57.625Z,1.70
2023-03-11T08:20:28.065Z,1.80
2023-03-11T08:22:58.703Z,1.80
2023-03-11T08:25:29.722Z,1.80
2023-03-11T08:28:00.176Z,2.00
2023-03-11T08:30:31.398Z,1.80
2023-03-11T08:33:01.920Z,2.00
2023-03-11T08:35:32.760Z,1.70
2023-03-11T08:38:03.380Z,1.60
2023-03-11T08:40:34.019Z,1.70
2023-03-11T08:43:04.492Z,1.80
2023-03-11T08:45:35.257Z,1.80
2023-03-11T08:48:05.942Z,1.80
2023-03-11T08:50:47.440Z,1.50
2023-03-11T08:53:24.279Z,1.70
2023-03-11T08:55:55.277Z,1.80
2023-03-11T08:58:25.692Z,1.80
2023-03-11T09:00:56.269Z,1.60
2023-03-11T09:03:27.570Z,1.50
2023-03-11T09:06:01.911Z,1.50
2023-03-11T09:08:32.934Z,1.60
2023-03-11T09:11:03.792Z,1.70
2023-03-11T09:13:34.225Z,1.90
2023-03-11T09:16:06.035Z,1.90
2023-03-11T09:18:36.542Z,2.20
2023-03-11T09:21:07.743Z,1.40
2023-03-11T09:23:38.393Z,1.50
2023-03-11T09:26:09.105Z,1.60
2023-03-11T09:28:39.638Z,1.40
2023-03-11T09:31:10.334Z,1.20
2023-03-11T09:33:42.887Z,1.30
2023-03-11T09:36:17.280Z,1.50
2023-03-11T09:38:48.228Z,1.50
2023-03-11T09:41:29.600Z,1.30
2023-03-11T09:44:12.413Z,1.20
2023-03-11T09:51:08.365Z,1.00
2023-03-11T09:58:01.478Z,1.20
2023-03-11T10:00:33.015Z,1.00
2023-03-11T10:03:07.867Z,1.70
2023-03-11T10:05:39.504Z,1.60
2023-03-11T10:08:22.724Z,1.70
2023-03-11T10:11:00.415Z,1.70
2023-03-11T10:13:36.816Z,1.90
2023-03-11T10:16:15.629Z,1.80
2023-03-11T10:21:32.847Z,1.40
2023-03-11T10:24:34.925Z,1.70
2023-03-11T10:27:13.526Z,1.70
2023-03-11T10:29:51.800Z,1.60
2023-03-11T10:32:30.973Z,1.50
2023-03-11T10:35:06.334Z,1.50
2023-03-11T10:37:49.476Z,1.60
2023-03-11T10:40:27.339Z,1.80
2023-03-11T10:43:02.841Z,1.60
2023-03-11T10:45:38.955Z,1.90
2023-03-11T10:48:14.177Z,2.00
2023-03-11T10:50:52.003Z,2.00
2023-03-11T10:53:22.845Z,1.60
2023-03-11T10:55:55.210Z,1.60
2023-03-11T10:58:27.034Z,1.70
2023-03-11T11:01:08.837Z,2.00
2023-03-11T11:03:44.493Z,1.80
2023-03-11T11:06:26.376Z,2.10
2023-03-11T11:09:19.807Z,1.70
2023-03-11T11:12:05.780Z,2.00
2023-03-11T11:14:50.125Z,1.90
2023-03-11T11:17:25.477Z,2.20
2023-03-11T11:19:58.167Z,2.00
2023-03-11T11:22:32.282Z,1.80
2023-03-11T11:25:02.727Z,2.10
2023-03-11T11:27:34.456Z,1.70
2023-03-11T11:30:18.888Z,2.80
2023-03-11T11:32:51.543Z,1.80
2023-03-11T11:35:23.597Z,2.10
2023-03-11T11:37:56.547Z,2.00
2023-03-11T11:40:32.710Z,2.10
2023-03-11T11:43:07.370Z,2.00
2023-03-11T11:45:41.650Z,2.10
2023-03-11T11:48:19.288Z,2.10
2023-03-11T11:50:55.840Z,2.10
2023-03-11T11:53:38.222Z,2.00
2023-03-11T11:56:08.858Z,1.70
2023-03-11T11:58:41.492Z,1.90
2023-03-11T12:01:19.885Z,1.80
2023-03-11T12:04:26.324Z,1.60
2023-03-11T12:07:11.696Z,1.60
2023-03-11T12:09:53.370Z,1.80
2023-03-11T12:12:33.959Z,2.00
2023-03-11T12:15:14.311Z,2.10
2023-03-11T12:17:48.662Z,1.80
2023-03-11T12:20:27.885Z,1.70
2023-03-11T12:23:21.639Z,1.50
2023-03-11T12:26:07.022Z,1.70
2023-03-11T12:28:46.678Z,1.50
2023-03-11T12:31:17.513Z,1.60
2023-03-11T12:33:51.263Z,1.50
2023-03-11T12:36:30.019Z,1.60
2023-03-11T12:41:33.683Z,1.90
2023-03-11T12:44:22.587Z,1.60
2023-03-11T12:47:23.560Z,1.50
2023-03-11T12:49:56.214Z,1.70
2023-03-11T12:52:31.278Z,1.40
2023-03-11T12:55:38.748Z,1.10
2023-03-11T12:58:35.705Z,1.20
2023-03-11T13:01:19.611Z,1.80
2023-03-11T13:04:03.705Z,1.60
2023-03-11T13:07:00.584Z,1.60
2023-03-11T13:09:31.689Z,1.80
2023-03-11T13:12:02.426Z,2.00
2023-03-11T13:14:34.482Z,2.10
2023-03-11T13:17:26.726Z,1.80
2023-03-11T13:19:58.434Z,2.50
2023-03-11T13:23:21.151Z,2.40
2023-03-11T13:26:20.133Z,2.20
2023-03-11T13:29:05.528Z,2.00
2023-03-11T13:31:50.945Z,1.90
2023-03-11T13:34:30.434Z,1.60
2023-03-11T13:37:20.754Z,2.10
2023-03-11T13:40:04.061Z,1.90
2023-03-11T13:42:38.038Z,2.00
2023-03-11T13:45:17.310Z,2.00
2023-03-11T13:47:49.835Z,1.90
2023-03-11T13:50:27.789Z,2.10
2023-03-11T13:53:00.672Z,2.00
2023-03-11T14:03:47.861Z,1.70
2023-03-11T14:06:20.782Z,1.80
2023-03-11T14:08:57.886Z,1.80
2023-03-11T14:11:30.218Z,1.60
2023-03-11T14:14:01.982Z,1.80
2023-03-11T14:16:43.926Z,1.70
2023-03-11T14:19:19.136Z,1.80
2023-03-11T14:21:51.691Z,1.80
2023-03-11T14:24:26.230Z,1.50
2023-03-11T14:26:59.065Z,1.70
2023-03-11T14:29:33.914Z,1.70
2023-03-11T14:32:25.010Z,2.10
2023-03-11T14:34:55.844Z,1.40
2023-03-11T14:37:34.454Z,2.10
2023-03-11T14:40:06.137Z,2.00
2023-03-11T14:42:39.358Z,1.60
2023-03-11T14:45:16.818Z,1.70
2023-03-11T14:47:52.148Z,1.90
2023-03-11T14:50:25.925Z,2.00
2023-03-11T14:53:04.344Z,2.00
2023-03-11T14:55:40.504Z,1.80
2023-03-11T14:58:16.689Z,2.00
2023-03-11T15:00:51.471Z,1.60
2023-03-11T15:03:26.900Z,2.00
2023-03-11T15:05:59.865Z,2.00
2023-03-11T15:08:35.378Z,2.10
2023-03-11T15:11:19.841Z,2.00
2023-03-11T15:13:51.718Z,2.20
2023-03-11T15:16:31.552Z,1.80
2023-03-11T15:19:24.738Z,2.10
2023-03-11T15:21:58.548Z,1.90
2023-03-11T15:24:31.022Z,1.90
2023-03-11T15:29:34.574Z,1.80
2023-03-11T15:32:38.601Z,2.00
2023-03-11T15:37:48.507Z,1.80
2023-03-11T15:40:42.429Z,1.90
2023-03-11T15:43:28.033Z,1.50
2023-03-11T15:46:01.019Z,2.00
2023-03-11T15:48:31.810Z,1.80
2023-03-11T15:51:03.156Z,1.40
2023-03-11T15:53:33.880Z,1.40
2023-03-11T15:56:13.375Z,1.60
2023-03-11T15:58:43.980Z,1.60
2023-03-11T16:01:14.434Z,1.50
2023-03-11T16:03:45.307Z,1.80
2023-03-11T16:06:15.912Z,1.60
2023-03-11T16:08:46.587Z,1.50
2023-03-11T16:15:38.933Z,1.70
2023-03-11T16:18:10.947Z,1.80
2023-03-11T16:20:43.913Z,1.60
2023-03-11T16:23:19.517Z,1.80
2023-03-11T16:25:50.616Z,1.40
2023-03-11T16:28:21.120Z,1.50
2023-03-11T16:30:52.716Z,2.00
2023-03-11T16:33:23.257Z,2.00
2023-03-11T16:35:53.979Z,1.90
2023-03-11T16:38:24.995Z,1.70
2023-03-11T16:41:00.544Z,1.60
2023-03-11T16:43:32.925Z,1.60
2023-03-11T16:46:03.388Z,1.80
2023-03-11T16:48:34.285Z,1.60
2023-03-11T16:51:05.105Z,1.80
2023-03-11T16:53:35.527Z,1.90
2023-03-11T16:56:08.004Z,1.90
2023-03-11T17:01:08.056Z,1.90
2023-03-11T17:03:42.888Z,1.40
2023-03-11T17:06:13.624Z,1.70
2023-03-11T17:08:49.182Z,1.70
2023-03-11T17:11:22.557Z,1.60
2023-03-11T17:13:55.381Z,1.60
2023-03-11T17:20:44.612Z,1.80
2023-03-11T17:23:15.012Z,1.90
2023-03-11T17:25:45.488Z,2.20
2023-03-11T17:28:16.016Z,2.00
2023-03-11T17:30:47.097Z,2.30
2023-03-11T17:33:17.633Z,2.20
2023-03-11T17:35:48.276Z,2.20
2023-03-11T17:38:18.822Z,2.00
2023-03-11T17:40:49.238Z,2.20
2023-03-11T17:43:19.699Z,2.70
2023-03-11T17:45:50.426Z,3.00
2023-03-11T17:48:21.399Z,2.50
2023-03-11T17:50:51.850Z,2.30
2023-03-11T17:53:22.462Z,2.90
2023-03-11T17:55:52.853Z,3.00
2023-03-11T17:58:23.265Z,3.10
2023-03-11T18:00:53.704Z,2.60
2023-03-11T18:10:13.889Z,1.60
2023-03-11T18:12:47.917Z,2.50
2023-03-11T18:15:19.872Z,2.00
2023-03-11T18:17:50.941Z,3.00
2023-03-11T18:20:21.929Z,3.30
2023-03-11T18:22:52.997Z,2.50
2023-03-11T18:25:23.448Z,3.00
2023-03-11T18:27:54.036Z,2.80
2023-03-11T18:30:24.880Z,2.80
2023-03-11T18:32:55.407Z,2.70
2023-03-11T18:35:26.035Z,2.60
2023-03-11T18:37:56.562Z,2.90
2023-03-11T18:40:27.930Z,2.90
2023-03-11T18:42:58.541Z,3.00
2023-03-11T18:45:28.971Z,2.70
2023-03-11T18:47:59.483Z,3.20
2023-03-11T18:50:31.107Z,3.20
2023-03-11T18:53:01.772Z,3.60
2023-03-11T18:55:34.968Z,3.30
2023-03-11T18:58:09.381Z,3.20
2023-03-11T19:00:40.055Z,3.40
2023-03-11T19:03:13.451Z,3.10
2023-03-11T19:05:50.700Z,3.40
2023-03-11T19:08:21.382Z,4.10
2023-03-11T19:10:52.194Z,4.50
2023-03-11T19:13:22.621Z,3.00
2023-03-11T19:15:53.560Z,3.70
2023-03-11T19:18:25.431Z,3.40
2023-03-11T19:21:01.069Z,3.40
2023-03-11T19:23:32.735Z,4.10
2023-03-11T19:26:03.812Z,4.40
2023-03-11T19:28:34.705Z,3.90
2023-03-11T19:31:06.209Z,3.60
2023-03-11T19:33:36.902Z,4.20
2023-03-11T19:36:09.906Z,4.30
2023-03-11T19:38:40.462Z,4.60
2023-03-11T19:41:14.447Z,4.50
2023-03-11T19:43:45.363Z,4.30
2023-03-11T19:46:18.266Z,4.60
2023-03-11T19:48:49.103Z,5.10
2023-03-11T19:51:19.682Z,4.30
2023-03-11T19:53:50.152Z,4.50
2023-03-11T19:56:20.797Z,5.10
2023-03-11T19:58:52.241Z,5.00
2023-03-11T20:01:25.341Z,4.50
2023-03-11T20:03:55.751Z,5.00
2023-03-11T20:06:26.343Z,4.40
2023-03-11T20:08:57.244Z,4.20
2023-03-11T20:11:27.822Z,4.60
2023-03-11T20:13:58.542Z,4.30
2023-03-11T20:16:29.116Z,4.40
2023-03-11T20:18:59.737Z,4.50
2023-03-11T20:21:30.579Z,4.50
2023-03-11T20:24:01.449Z,3.90
2023-03-11T20:26:31.965Z,4.50
2023-03-11T20:29:02.455Z,5.60
2023-03-11T20:31:33.386Z,4.90
2023-03-11T20:34:04.060Z,4.70
2023-03-11T20:36:35.325Z,4.20
2023-03-11T20:39:09.980Z,5.40
2023-03-11T20:41:42.446Z,3.90
2023-03-11T20:44:15.076Z,4.60
2023-03-11T20:46:45.861Z,4.80
2023-03-11T20:49:16.504Z,4.30
2023-03-11T20:51:48.188Z,4.40
2023-03-11T20:54:19.082Z,4.70
2023-03-11T20:56:51.004Z,4.80
2023-03-11T20:59:21.602Z,4.80
2023-03-11T21:01:52.206Z,4.30
2023-03-11T21:04:24.459Z,5.30
2023-03-11T21:06:55.511Z,4.40
2023-03-11T21:09:26.272Z,5.20
2023-03-11T21:11:57.086Z,4.10
2023-03-11T21:14:27.731Z,6.10
2023-03-11T21:16:58.422Z,4.50
2023-03-11T21:19:29.226Z,3.50
2023-03-11T21:22:00.163Z,5.00
2023-03-11T21:24:30.802Z,3.60
2023-03-11T21:27:01.319Z,4.50
2023-03-11T21:29:31.854Z,5.10
2023-03-11T21:32:02.465Z,3.90
2023-03-11T21:34:33.115Z,4.70
2023-03-11T21:37:03.860Z,4.20
2023-03-11T21:39:34.377Z,5.30
2023-03-11T21:42:05.292Z,5.50
2023-03-11T21:44:35.858Z,5.30
2023-03-11T21:47:06.785Z,5.50
2023-03-11T21:49:38.786Z,5.00
2023-03-11T21:52:09.638Z,4.80
2023-03-11T21:54:40.108Z,4.90
2023-03-11T21:57:11.518Z,5.60
2023-03-11T21:59:42.162Z,5.20
2023-03-11T22:02:17.021Z,5.40
2023-03-11T22:04:48.560Z,4.90
2023-03-11T22:07:19.328Z,5.40
2023-03-11T22:09:51.945Z,5.20
2023-03-11T22:12:22.486Z,5.80
2023-03-11T22:14:53.033Z,6.40
2023-03-11T22:21:36.626Z,5.20
2023-03-11T22:24:08.230Z,5.80
2023-03-11T22:26:38.682Z,5.40
2023-03-11T22:37:57.473Z,3.70
2023-03-11T22:40:28.789Z,5.10
2023-03-11T22:42:59.217Z,5.00
2023-03-11T22:45:29.743Z,5.30
2023-03-11T22:48:00.993Z,5.30
2023-03-11T22:50:33.271Z,5.70
2023-03-11T22:53:03.710Z,5.30
2023-03-11T22:59:47.413Z,4.20
2023-03-11T23:06:38.613Z,4.20
2023-03-11T23:09:09.253Z,4.90
2023-03-11T23:11:39.678Z,3.90
2023-03-11T23:14:10.123Z,4.40
2023-03-11T23:21:14.358Z,4.10
2023-03-11T23:23:44.808Z,3.90
2023-03-11T23:26:16.201Z,4.60
2023-03-11T23:28:47.893Z,3.90
2023-03-11T23:31:19.413Z,4.90
2023-03-11T23:38:11.123Z,5.40
2023-03-11T23:40:43.744Z,4.80
2023-03-11T23:45:45.331Z,4.40
2023-03-11T23:48:16.049Z,4.10
2023-03-11T23:50:49.167Z,3.90
2023-03-11T23:53:23.178Z,4.00
2023-03-11T23:55:53.746Z,4.30
2023-03-11T23:58:24.638Z,4.30
